sensor_id;sensor_type;location;lat;lon;timestamp;pressure;altitude;pressure_sealevel;temperature;humidity
50710;BME280;37033;49.994;21.992;2023-02-05T00:02:16;100732.55;;;-4.32;78.49
50710;BME280;37033;49.994;21.992;2023-02-05T00:05:07;100731.65;;;-4.31;78.57
50710;BME280;37033;49.994;21.992;2023-02-05T00:07:57;100729.17;;;-4.31;78.57
50710;BME280;37033;49.994;21.992;2023-02-05T00:10:51;100728.63;;;-4.31;78.50
50710;BME280;37033;49.994;21.992;2023-02-05T00:13:43;100734.41;;;-4.33;78.55
50710;BME280;37033;49.994;21.992;2023-02-05T00:16:34;100731.39;;;-4.33;78.69
50710;BME280;37033;49.994;21.992;2023-02-05T00:19:24;100731.55;;;-4.32;78.66
50710;BME280;37033;49.994;21.992;2023-02-05T00:22:14;100732.65;;;-4.33;78.61
50710;BME280;37033;49.994;21.992;2023-02-05T00:25:05;100734.60;;;-4.33;78.65
50710;BME280;37033;49.994;21.992;2023-02-05T00:27:55;100740.68;;;-4.34;78.67
50710;BME280;37033;49.994;21.992;2023-02-05T00:30:44;100747.44;;;-4.34;78.79
50710;BME280;37033;49.994;21.992;2023-02-05T00:33:34;100748.70;;;-4.35;78.73
50710;BME280;37033;49.994;21.992;2023-02-05T00:36:24;100750.43;;;-4.34;78.80
50710;BME280;37033;49.994;21.992;2023-02-05T00:39:14;100746.10;;;-4.35;78.76
50710;BME280;37033;49.994;21.992;2023-02-05T00:42:06;100752.70;;;-4.33;78.75
50710;BME280;37033;49.994;21.992;2023-02-05T00:44:55;100753.54;;;-4.33;78.84
50710;BME280;37033;49.994;21.992;2023-02-05T00:47:45;100756.41;;;-4.33;78.90
50710;BME280;37033;49.994;21.992;2023-02-05T00:50:35;100753.52;;;-4.33;78.82
50710;BME280;37033;49.994;21.992;2023-02-05T00:53:26;100752.94;;;-4.32;78.93
50710;BME280;37033;49.994;21.992;2023-02-05T00:56:15;100750.42;;;-4.32;79.01
50710;BME280;37033;49.994;21.992;2023-02-05T00:59:05;100753.73;;;-4.31;78.88
50710;BME280;37033;49.994;21.992;2023-02-05T01:01:54;100753.96;;;-4.32;78.88
50710;BME280;37033;49.994;21.992;2023-02-05T01:04:44;100752.17;;;-4.31;78.97
50710;BME280;37033;49.994;21.992;2023-02-05T01:07:34;100756.27;;;-4.31;78.91
50710;BME280;37033;49.994;21.992;2023-02-05T01:10:23;100756.77;;;-4.32;78.94
50710;BME280;37033;49.994;21.992;2023-02-05T01:13:13;100754.95;;;-4.31;78.96
50710;BME280;37033;49.994;21.992;2023-02-05T01:16:04;100750.70;;;-4.31;78.88
50710;BME280;37033;49.994;21.992;2023-02-05T01:18:53;100751.46;;;-4.31;78.94
50710;BME280;37033;49.994;21.992;2023-02-05T01:21:44;100747.27;;;-4.32;79.09
50710;BME280;37033;49.994;21.992;2023-02-05T01:24:33;100750.80;;;-4.32;79.07
50710;BME280;37033;49.994;21.992;2023-02-05T01:27:23;100743.67;;;-4.34;79.07
50710;BME280;37033;49.994;21.992;2023-02-05T01:30:13;100742.46;;;-4.34;79.03
50710;BME280;37033;49.994;21.992;2023-02-05T01:33:04;100742.34;;;-4.35;79.06
50710;BME280;37033;49.994;21.992;2023-02-05T01:35:54;100736.06;;;-4.36;79.02
50710;BME280;37033;49.994;21.992;2023-02-05T01:38:44;100740.64;;;-4.36;79.10
50710;BME280;37033;49.994;21.992;2023-02-05T01:41:33;100741.63;;;-4.37;79.12
50710;BME280;37033;49.994;21.992;2023-02-05T01:44:24;100736.84;;;-4.37;79.12
50710;BME280;37033;49.994;21.992;2023-02-05T01:47:14;100736.67;;;-4.37;79.16
50710;BME280;37033;49.994;21.992;2023-02-05T01:50:04;100736.63;;;-4.37;79.17
50710;BME280;37033;49.994;21.992;2023-02-05T01:52:54;100740.09;;;-4.38;79.27
50710;BME280;37033;49.994;21.992;2023-02-05T01:55:50;100743.19;;;-4.37;79.28
50710;BME280;37033;49.994;21.992;2023-02-05T01:58:44;100744.39;;;-4.39;79.38
50710;BME280;37033;49.994;21.992;2023-02-05T02:01:35;100745.14;;;-4.39;79.37
50710;BME280;37033;49.994;21.992;2023-02-05T02:04:33;100744.70;;;-4.40;79.31
50710;BME280;37033;49.994;21.992;2023-02-05T02:07:25;100746.50;;;-4.41;79.39
50710;BME280;37033;49.994;21.992;2023-02-05T02:10:16;100760.39;;;-4.42;79.34
50710;BME280;37033;49.994;21.992;2023-02-05T02:13:06;100760.17;;;-4.42;79.29
50710;BME280;37033;49.994;21.992;2023-02-05T02:15:57;100760.08;;;-4.43;79.35
50710;BME280;37033;49.994;21.992;2023-02-05T02:18:47;100762.95;;;-4.43;79.37
50710;BME280;37033;49.994;21.992;2023-02-05T02:21:48;100764.89;;;-4.43;79.44
50710;BME280;37033;49.994;21.992;2023-02-05T02:25:00;100766.00;;;-4.44;79.48
50710;BME280;37033;49.994;21.992;2023-02-05T02:27:55;100764.20;;;-4.43;79.40
50710;BME280;37033;49.994;21.992;2023-02-05T02:30:53;100761.98;;;-4.45;79.57
50710;BME280;37033;49.994;21.992;2023-02-05T02:33:49;100759.54;;;-4.45;79.53
50710;BME280;37033;49.994;21.992;2023-02-05T02:36:46;100761.27;;;-4.45;79.57
50710;BME280;37033;49.994;21.992;2023-02-05T02:39:41;100764.41;;;-4.46;79.54
50710;BME280;37033;49.994;21.992;2023-02-05T02:42:34;100765.02;;;-4.47;79.54
50710;BME280;37033;49.994;21.992;2023-02-05T02:45:27;100764.23;;;-4.49;79.52
50710;BME280;37033;49.994;21.992;2023-02-05T02:48:20;100767.18;;;-4.50;79.47
50710;BME280;37033;49.994;21.992;2023-02-05T02:51:12;100769.01;;;-4.51;79.37
50710;BME280;37033;49.994;21.992;2023-02-05T02:54:06;100765.92;;;-4.52;79.38
50710;BME280;37033;49.994;21.992;2023-02-05T02:56:59;100769.02;;;-4.54;79.27
50710;BME280;37033;49.994;21.992;2023-02-05T02:59:51;100769.86;;;-4.56;79.37
50710;BME280;37033;49.994;21.992;2023-02-05T03:02:44;100776.96;;;-4.56;79.44
50710;BME280;37033;49.994;21.992;2023-02-05T03:05:36;100773.13;;;-4.57;79.40
50710;BME280;37033;49.994;21.992;2023-02-05T03:08:29;100780.45;;;-4.58;79.44
50710;BME280;37033;49.994;21.992;2023-02-05T03:11:23;100779.55;;;-4.60;79.24
50710;BME280;37033;49.994;21.992;2023-02-05T03:14:13;100780.59;;;-4.63;79.23
50710;BME280;37033;49.994;21.992;2023-02-05T03:17:02;100784.33;;;-4.65;79.24
50710;BME280;37033;49.994;21.992;2023-02-05T03:19:54;100784.63;;;-4.67;79.07
50710;BME280;37033;49.994;21.992;2023-02-05T03:22:46;100793.84;;;-4.70;78.85
50710;BME280;37033;49.994;21.992;2023-02-05T03:25:35;100793.36;;;-4.73;78.93
50710;BME280;37033;49.994;21.992;2023-02-05T03:28:25;100793.02;;;-4.76;78.94
50710;BME280;37033;49.994;21.992;2023-02-05T03:31:18;100795.02;;;-4.79;78.84
50710;BME280;37033;49.994;21.992;2023-02-05T03:34:15;100797.77;;;-4.83;78.80
50710;BME280;37033;49.994;21.992;2023-02-05T03:37:15;100802.43;;;-4.86;78.75
50710;BME280;37033;49.994;21.992;2023-02-05T03:40:13;100801.77;;;-4.92;78.73
50710;BME280;37033;49.994;21.992;2023-02-05T03:43:11;100803.30;;;-4.96;78.71
50710;BME280;37033;49.994;21.992;2023-02-05T03:46:06;100803.40;;;-5.00;78.79
50710;BME280;37033;49.994;21.992;2023-02-05T03:49:10;100807.79;;;-5.05;78.73
50710;BME280;37033;49.994;21.992;2023-02-05T03:52:05;100812.31;;;-5.09;78.69
50710;BME280;37033;49.994;21.992;2023-02-05T03:55:05;100811.54;;;-5.13;78.82
50710;BME280;37033;49.994;21.992;2023-02-05T03:57:59;100816.73;;;-5.17;78.69
50710;BME280;37033;49.994;21.992;2023-02-05T04:00:51;100814.54;;;-5.21;78.68
50710;BME280;37033;49.994;21.992;2023-02-05T04:03:40;100819.56;;;-5.25;78.54
50710;BME280;37033;49.994;21.992;2023-02-05T04:06:30;100817.11;;;-5.27;78.49
50710;BME280;37033;49.994;21.992;2023-02-05T04:09:20;100815.60;;;-5.31;78.51
50710;BME280;37033;49.994;21.992;2023-02-05T04:12:09;100814.94;;;-5.35;78.50
50710;BME280;37033;49.994;21.992;2023-02-05T04:14:59;100813.66;;;-5.37;78.50
50710;BME280;37033;49.994;21.992;2023-02-05T04:17:48;100813.59;;;-5.38;78.56
50710;BME280;37033;49.994;21.992;2023-02-05T04:20:38;100812.36;;;-5.41;78.70
50710;BME280;37033;49.994;21.992;2023-02-05T04:23:27;100814.41;;;-5.43;78.67
50710;BME280;37033;49.994;21.992;2023-02-05T04:26:17;100817.56;;;-5.45;78.86
50710;BME280;37033;49.994;21.992;2023-02-05T04:29:07;100819.69;;;-5.45;78.94
50710;BME280;37033;49.994;21.992;2023-02-05T04:31:56;100817.79;;;-5.45;79.05
50710;BME280;37033;49.994;21.992;2023-02-05T04:34:46;100815.02;;;-5.46;79.13
50710;BME280;37033;49.994;21.992;2023-02-05T04:37:35;100815.80;;;-5.45;79.23
50710;BME280;37033;49.994;21.992;2023-02-05T04:40:25;100814.04;;;-5.45;79.29
50710;BME280;37033;49.994;21.992;2023-02-05T04:43:14;100820.00;;;-5.44;79.48
50710;BME280;37033;49.994;21.992;2023-02-05T04:46:07;100820.69;;;-5.44;79.46
50710;BME280;37033;49.994;21.992;2023-02-05T04:48:57;100819.82;;;-5.44;79.62
50710;BME280;37033;49.994;21.992;2023-02-05T04:51:47;100823.72;;;-5.45;79.61
50710;BME280;37033;49.994;21.992;2023-02-05T04:54:37;100825.23;;;-5.43;79.65
50710;BME280;37033;49.994;21.992;2023-02-05T04:57:26;100830.81;;;-5.42;79.77
50710;BME280;37033;49.994;21.992;2023-02-05T05:00:17;100826.29;;;-5.43;79.74
50710;BME280;37033;49.994;21.992;2023-02-05T05:03:06;100831.14;;;-5.45;79.76
50710;BME280;37033;49.994;21.992;2023-02-05T05:06:01;100830.11;;;-5.45;79.86
50710;BME280;37033;49.994;21.992;2023-02-05T05:08:52;100837.52;;;-5.45;79.90
50710;BME280;37033;49.994;21.992;2023-02-05T05:11:42;100834.41;;;-5.46;79.92
50710;BME280;37033;49.994;21.992;2023-02-05T05:14:31;100835.13;;;-5.46;80.05
50710;BME280;37033;49.994;21.992;2023-02-05T05:17:21;100833.52;;;-5.46;80.00
50710;BME280;37033;49.994;21.992;2023-02-05T05:20:12;100833.08;;;-5.47;80.03
50710;BME280;37033;49.994;21.992;2023-02-05T05:23:02;100836.69;;;-5.46;80.11
50710;BME280;37033;49.994;21.992;2023-02-05T05:25:51;100830.73;;;-5.46;79.97
50710;BME280;37033;49.994;21.992;2023-02-05T05:28:41;100834.98;;;-5.46;80.12
50710;BME280;37033;49.994;21.992;2023-02-05T05:31:31;100836.98;;;-5.47;80.05
50710;BME280;37033;49.994;21.992;2023-02-05T05:34:21;100834.89;;;-5.48;80.12
50710;BME280;37033;49.994;21.992;2023-02-05T05:37:10;100836.66;;;-5.48;80.20
50710;BME280;37033;49.994;21.992;2023-02-05T05:40:00;100833.90;;;-5.49;80.25
50710;BME280;37033;49.994;21.992;2023-02-05T05:43:09;100840.20;;;-5.50;80.28
50710;BME280;37033;49.994;21.992;2023-02-05T05:46:19;100837.42;;;-5.51;80.42
50710;BME280;37033;49.994;21.992;2023-02-05T05:49:09;100842.69;;;-5.51;80.45
50710;BME280;37033;49.994;21.992;2023-02-05T05:51:59;100840.97;;;-5.51;80.62
50710;BME280;37033;49.994;21.992;2023-02-05T05:54:48;100846.48;;;-5.52;80.66
50710;BME280;37033;49.994;21.992;2023-02-05T05:57:38;100850.00;;;-5.52;80.78
50710;BME280;37033;49.994;21.992;2023-02-05T06:00:28;100855.33;;;-5.52;80.82
50710;BME280;37033;49.994;21.992;2023-02-05T06:03:17;100861.17;;;-5.52;80.94
50710;BME280;37033;49.994;21.992;2023-02-05T06:06:11;100865.39;;;-5.52;80.87
50710;BME280;37033;49.994;21.992;2023-02-05T06:09:01;100874.30;;;-5.51;80.97
50710;BME280;37033;49.994;21.992;2023-02-05T06:11:51;100876.27;;;-5.51;80.99
50710;BME280;37033;49.994;21.992;2023-02-05T06:14:40;100879.96;;;-5.51;81.07
50710;BME280;37033;49.994;21.992;2023-02-05T06:17:30;100884.71;;;-5.50;81.23
50710;BME280;37033;49.994;21.992;2023-02-05T06:20:20;100885.77;;;-5.50;81.36
50710;BME280;37033;49.994;21.992;2023-02-05T06:23:10;100894.55;;;-5.50;81.26
50710;BME280;37033;49.994;21.992;2023-02-05T06:25:59;100899.05;;;-5.48;81.29
50710;BME280;37033;49.994;21.992;2023-02-05T06:28:50;100899.98;;;-5.46;81.27
50710;BME280;37033;49.994;21.992;2023-02-05T06:31:39;100901.08;;;-5.44;81.35
50710;BME280;37033;49.994;21.992;2023-02-05T06:34:29;100901.73;;;-5.43;81.40
50710;BME280;37033;49.994;21.992;2023-02-05T06:37:19;100901.31;;;-5.43;81.39
50710;BME280;37033;49.994;21.992;2023-02-05T06:40:10;100899.26;;;-5.43;81.54
50710;BME280;37033;49.994;21.992;2023-02-05T06:43:00;100901.83;;;-5.42;81.68
50710;BME280;37033;49.994;21.992;2023-02-05T06:45:50;100903.54;;;-5.42;81.68
50710;BME280;37033;49.994;21.992;2023-02-05T06:48:40;100905.04;;;-5.40;81.76
50710;BME280;37033;49.994;21.992;2023-02-05T06:51:30;100914.21;;;-5.40;81.78
50710;BME280;37033;49.994;21.992;2023-02-05T06:54:20;100922.92;;;-5.38;81.88
50710;BME280;37033;49.994;21.992;2023-02-05T06:57:10;100931.29;;;-5.36;81.89
50710;BME280;37033;49.994;21.992;2023-02-05T07:00:00;100929.86;;;-5.36;81.90
50710;BME280;37033;49.994;21.992;2023-02-05T07:02:49;100932.38;;;-5.34;81.80
50710;BME280;37033;49.994;21.992;2023-02-05T07:05:40;100928.42;;;-5.32;81.88
50710;BME280;37033;49.994;21.992;2023-02-05T07:08:30;100931.63;;;-5.30;81.86
50710;BME280;37033;49.994;21.992;2023-02-05T07:11:21;100932.20;;;-5.28;81.72
50710;BME280;37033;49.994;21.992;2023-02-05T07:14:11;100937.52;;;-5.26;81.77
50710;BME280;37033;49.994;21.992;2023-02-05T07:17:01;100944.23;;;-5.23;81.62
50710;BME280;37033;49.994;21.992;2023-02-05T07:19:51;100947.83;;;-5.22;81.49
50710;BME280;37033;49.994;21.992;2023-02-05T07:22:41;100955.48;;;-5.20;81.39
50710;BME280;37033;49.994;21.992;2023-02-05T07:25:30;100954.92;;;-5.17;81.34
50710;BME280;37033;49.994;21.992;2023-02-05T07:28:26;100958.10;;;-5.14;81.17
50710;BME280;37033;49.994;21.992;2023-02-05T07:31:17;100956.94;;;-5.10;81.13
50710;BME280;37033;49.994;21.992;2023-02-05T07:34:07;100957.85;;;-5.05;81.11
50710;BME280;37033;49.994;21.992;2023-02-05T07:36:57;100959.67;;;-5.00;80.80
50710;BME280;37033;49.994;21.992;2023-02-05T07:39:46;100965.18;;;-4.98;80.50
50710;BME280;37033;49.994;21.992;2023-02-05T07:42:36;100966.82;;;-4.96;80.22
50710;BME280;37033;49.994;21.992;2023-02-05T07:45:26;100965.88;;;-4.95;80.11
50710;BME280;37033;49.994;21.992;2023-02-05T07:48:15;100962.34;;;-4.92;80.03
50710;BME280;37033;49.994;21.992;2023-02-05T07:51:06;100963.04;;;-4.89;79.99
50710;BME280;37033;49.994;21.992;2023-02-05T07:53:56;100970.05;;;-4.86;80.11
50710;BME280;37033;49.994;21.992;2023-02-05T07:56:45;100972.70;;;-4.83;79.88
50710;BME280;37033;49.994;21.992;2023-02-05T07:59:35;100960.16;;;-4.81;79.90
50710;BME280;37033;49.994;21.992;2023-02-05T08:02:24;100963.48;;;-4.78;80.05
50710;BME280;37033;49.994;21.992;2023-02-05T08:05:14;100963.73;;;-4.73;80.02
50710;BME280;37033;49.994;21.992;2023-02-05T08:08:06;100963.52;;;-4.70;79.80
50710;BME280;37033;49.994;21.992;2023-02-05T08:11:00;100970.46;;;-4.69;79.90
50710;BME280;37033;49.994;21.992;2023-02-05T08:13:50;100974.73;;;-4.66;79.88
50710;BME280;37033;49.994;21.992;2023-02-05T08:16:40;100980.02;;;-4.63;80.00
50710;BME280;37033;49.994;21.992;2023-02-05T08:19:30;100983.89;;;-4.58;79.94
50710;BME280;37033;49.994;21.992;2023-02-05T08:22:20;100991.94;;;-4.54;79.92
50710;BME280;37033;49.994;21.992;2023-02-05T08:25:13;100991.37;;;-4.53;79.56
50710;BME280;37033;49.994;21.992;2023-02-05T08:28:03;100992.58;;;-4.53;79.58
50710;BME280;37033;49.994;21.992;2023-02-05T08:30:53;100992.27;;;-4.48;79.79
50710;BME280;37033;49.994;21.992;2023-02-05T08:33:43;100998.08;;;-4.43;79.81
50710;BME280;37033;49.994;21.992;2023-02-05T08:36:33;100994.84;;;-4.37;79.69
50710;BME280;37033;49.994;21.992;2023-02-05T08:39:23;100993.36;;;-4.33;79.63
50710;BME280;37033;49.994;21.992;2023-02-05T08:42:14;100993.02;;;-4.31;79.60
50710;BME280;37033;49.994;21.992;2023-02-05T08:45:05;100996.89;;;-4.28;79.51
50710;BME280;37033;49.994;21.992;2023-02-05T08:47:56;101001.20;;;-4.24;79.58
50710;BME280;37033;49.994;21.992;2023-02-05T08:50:47;100996.10;;;-4.22;79.58
50710;BME280;37033;49.994;21.992;2023-02-05T08:53:37;100998.00;;;-4.19;79.66
50710;BME280;37033;49.994;21.992;2023-02-05T08:56:27;100999.31;;;-4.17;79.61
50710;BME280;37033;49.994;21.992;2023-02-05T08:59:17;100996.00;;;-4.15;79.57
50710;BME280;37033;49.994;21.992;2023-02-05T09:02:06;101000.58;;;-4.12;79.28
50710;BME280;37033;49.994;21.992;2023-02-05T09:04:57;100999.48;;;-4.12;79.18
50710;BME280;37033;49.994;21.992;2023-02-05T09:07:47;101002.26;;;-4.11;79.11
50710;BME280;37033;49.994;21.992;2023-02-05T09:10:38;101003.67;;;-4.11;79.12
50710;BME280;37033;49.994;21.992;2023-02-05T09:13:31;101013.65;;;-4.04;79.35
50710;BME280;37033;49.994;21.992;2023-02-05T09:16:21;101017.89;;;-3.99;79.36
50710;BME280;37033;49.994;21.992;2023-02-05T09:19:11;101020.86;;;-3.91;79.45
50710;BME280;37033;49.994;21.992;2023-02-05T09:22:01;101025.23;;;-3.85;79.09
50710;BME280;37033;49.994;21.992;2023-02-05T09:24:52;101030.52;;;-3.85;78.69
50710;BME280;37033;49.994;21.992;2023-02-05T09:27:42;101029.60;;;-3.84;78.80
50710;BME280;37033;49.994;21.992;2023-02-05T09:30:31;101028.60;;;-3.80;78.82
50710;BME280;37033;49.994;21.992;2023-02-05T09:33:22;101029.59;;;-3.79;78.38
50710;BME280;37033;49.994;21.992;2023-02-05T09:36:16;101026.90;;;-3.81;78.22
50710;BME280;37033;49.994;21.992;2023-02-05T09:39:05;101033.70;;;-3.82;78.13
50710;BME280;37033;49.994;21.992;2023-02-05T09:42:02;101031.73;;;-3.85;78.12
50710;BME280;37033;49.994;21.992;2023-02-05T09:45:05;101034.62;;;-3.82;78.24
50710;BME280;37033;49.994;21.992;2023-02-05T09:48:06;101034.85;;;-3.81;78.15
50710;BME280;37033;49.994;21.992;2023-02-05T09:51:02;101026.84;;;-3.80;77.97
50710;BME280;37033;49.994;21.992;2023-02-05T09:53:56;101026.25;;;-3.80;78.13
50710;BME280;37033;49.994;21.992;2023-02-05T09:56:47;101022.95;;;-3.80;77.95
50710;BME280;37033;49.994;21.992;2023-02-05T09:59:37;101019.38;;;-3.80;78.20
50710;BME280;37033;49.994;21.992;2023-02-05T10:02:35;101016.30;;;-3.74;78.19
50710;BME280;37033;49.994;21.992;2023-02-05T10:05:29;101018.80;;;-3.69;78.10
50710;BME280;37033;49.994;21.992;2023-02-05T10:08:25;101017.92;;;-3.72;77.41
50710;BME280;37033;49.994;21.992;2023-02-05T10:11:30;101017.35;;;-3.76;77.45
50710;BME280;37033;49.994;21.992;2023-02-05T10:14:31;101009.39;;;-3.84;77.25
50710;BME280;37033;49.994;21.992;2023-02-05T10:17:41;101019.41;;;-3.86;77.79
50710;BME280;37033;49.994;21.992;2023-02-05T10:20:47;101020.77;;;-3.82;77.82
50710;BME280;37033;49.994;21.992;2023-02-05T10:23:52;101031.16;;;-3.81;77.68
50710;BME280;37033;49.994;21.992;2023-02-05T10:26:48;101020.43;;;-3.85;77.71
50710;BME280;37033;49.994;21.992;2023-02-05T10:29:43;101024.05;;;-3.83;77.57
50710;BME280;37033;49.994;21.992;2023-02-05T10:32:43;101018.31;;;-3.85;77.61
50710;BME280;37033;49.994;21.992;2023-02-05T10:35:46;101019.40;;;-3.83;78.03
50710;BME280;37033;49.994;21.992;2023-02-05T10:38:43;101022.05;;;-3.80;78.06
50710;BME280;37033;49.994;21.992;2023-02-05T10:41:36;101027.59;;;-3.79;77.94
50710;BME280;37033;49.994;21.992;2023-02-05T10:44:31;101030.80;;;-3.81;78.01
50710;BME280;37033;49.994;21.992;2023-02-05T10:47:37;101039.92;;;-3.80;78.21
50710;BME280;37033;49.994;21.992;2023-02-05T10:50:33;101038.67;;;-3.77;78.20
50710;BME280;37033;49.994;21.992;2023-02-05T10:53:26;101037.45;;;-3.75;78.15
50710;BME280;37033;49.994;21.992;2023-02-05T10:56:18;101036.73;;;-3.72;78.10
50710;BME280;37033;49.994;21.992;2023-02-05T10:59:16;101033.23;;;-3.70;78.13
50710;BME280;37033;49.994;21.992;2023-02-05T11:02:09;101030.66;;;-3.64;78.28
50710;BME280;37033;49.994;21.992;2023-02-05T11:05:03;101037.52;;;-3.61;78.27
50710;BME280;37033;49.994;21.992;2023-02-05T11:07:54;101036.35;;;-3.57;78.43
50710;BME280;37033;49.994;21.992;2023-02-05T11:10:52;101028.80;;;-3.48;78.36
50710;BME280;37033;49.994;21.992;2023-02-05T11:13:49;101027.10;;;-3.41;77.93
50710;BME280;37033;49.994;21.992;2023-02-05T11:16:43;101027.20;;;-3.38;77.74
50710;BME280;37033;49.994;21.992;2023-02-05T11:19:33;101031.66;;;-3.31;77.68
50710;BME280;37033;49.994;21.992;2023-02-05T11:22:28;101031.41;;;-3.23;77.37
50710;BME280;37033;49.994;21.992;2023-02-05T11:25:20;101031.88;;;-3.19;76.78
50710;BME280;37033;49.994;21.992;2023-02-05T11:28:20;101031.25;;;-3.21;76.39
50710;BME280;37033;49.994;21.992;2023-02-05T11:31:24;101023.34;;;-3.19;76.42
50710;BME280;37033;49.994;21.992;2023-02-05T11:34:16;101029.44;;;-3.12;76.06
50710;BME280;37033;49.994;21.992;2023-02-05T11:37:14;101033.86;;;-3.10;75.92
50710;BME280;37033;49.994;21.992;2023-02-05T11:40:07;101035.20;;;-3.07;75.49
50710;BME280;37033;49.994;21.992;2023-02-05T11:43:16;101029.70;;;-3.07;75.65
50710;BME280;37033;49.994;21.992;2023-02-05T11:46:09;101025.83;;;-3.02;75.75
50710;BME280;37033;49.994;21.992;2023-02-05T11:49:03;101031.61;;;-3.04;75.05
50710;BME280;37033;49.994;21.992;2023-02-05T11:51:54;101028.51;;;-3.12;74.69
50710;BME280;37033;49.994;21.992;2023-02-05T11:54:47;101026.10;;;-3.21;74.98
50710;BME280;37033;49.994;21.992;2023-02-05T11:57:38;101031.77;;;-3.28;74.89
50710;BME280;37033;49.994;21.992;2023-02-05T12:00:30;101031.49;;;-3.31;75.03
50710;BME280;37033;49.994;21.992;2023-02-05T12:03:20;101026.20;;;-3.34;75.05
50710;BME280;37033;49.994;21.992;2023-02-05T12:06:17;101019.39;;;-3.35;75.04
50710;BME280;37033;49.994;21.992;2023-02-05T12:09:13;101016.77;;;-3.36;75.07
50710;BME280;37033;49.994;21.992;2023-02-05T12:12:07;101020.14;;;-3.36;74.76
50710;BME280;37033;49.994;21.992;2023-02-05T12:15:12;101019.40;;;-3.38;74.85
50710;BME280;37033;49.994;21.992;2023-02-05T12:18:16;101024.80;;;-3.40;74.80
50710;BME280;37033;49.994;21.992;2023-02-05T12:21:21;101024.94;;;-3.44;74.50
50710;BME280;37033;49.994;21.992;2023-02-05T12:27:51;101024.23;;;-3.51;74.99
50710;BME280;37033;49.994;21.992;2023-02-05T12:30:53;101021.08;;;-3.51;75.38
50710;BME280;37033;49.994;21.992;2023-02-05T12:34:00;101016.16;;;-3.50;75.29
50710;BME280;37033;49.994;21.992;2023-02-05T12:37:07;101013.23;;;-3.44;75.61
50710;BME280;37033;49.994;21.992;2023-02-05T12:40:12;101018.23;;;-3.36;75.38
50710;BME280;37033;49.994;21.992;2023-02-05T12:43:13;101019.37;;;-3.30;75.17
50710;BME280;37033;49.994;21.992;2023-02-05T12:46:17;101023.55;;;-3.24;75.06
50710;BME280;37033;49.994;21.992;2023-02-05T12:49:22;101026.07;;;-3.18;75.13
50710;BME280;37033;49.994;21.992;2023-02-05T12:52:32;101032.73;;;-3.09;74.33
50710;BME280;37033;49.994;21.992;2023-02-05T12:55:42;101034.44;;;-3.08;73.96
50710;BME280;37033;49.994;21.992;2023-02-05T12:58:40;101034.52;;;-3.04;74.09
50710;BME280;37033;49.994;21.992;2023-02-05T13:01:37;101033.56;;;-3.04;74.04
50710;BME280;37033;49.994;21.992;2023-02-05T13:04:34;101034.80;;;-3.03;74.20
50710;BME280;37033;49.994;21.992;2023-02-05T13:07:31;101038.14;;;-3.03;74.22
50710;BME280;37033;49.994;21.992;2023-02-05T13:10:23;101036.32;;;-3.07;74.20
50710;BME280;37033;49.994;21.992;2023-02-05T13:13:19;101035.73;;;-3.14;74.11
50710;BME280;37033;49.994;21.992;2023-02-05T13:16:14;101040.80;;;-3.25;74.38
50710;BME280;37033;49.994;21.992;2023-02-05T13:19:12;101043.28;;;-3.35;74.52
50710;BME280;37033;49.994;21.992;2023-02-05T13:22:14;101050.30;;;-3.41;74.78
50710;BME280;37033;49.994;21.992;2023-02-05T13:25:30;101049.45;;;-3.47;75.08
50710;BME280;37033;49.994;21.992;2023-02-05T13:28:39;101045.77;;;-3.52;75.23
50710;BME280;37033;49.994;21.992;2023-02-05T13:31:34;101043.59;;;-3.56;75.36
50710;BME280;37033;49.994;21.992;2023-02-05T13:34:26;101046.23;;;-3.59;75.60
50710;BME280;37033;49.994;21.992;2023-02-05T13:37:36;101051.85;;;-3.60;75.72
50710;BME280;37033;49.994;21.992;2023-02-05T13:40:44;101053.55;;;-3.67;75.93
50710;BME280;37033;49.994;21.992;2023-02-05T13:47:44;101059.47;;;-3.70;76.69
50710;BME280;37033;49.994;21.992;2023-02-05T13:51:01;101057.14;;;-3.65;76.93
50710;BME280;37033;49.994;21.992;2023-02-05T13:54:12;101057.86;;;-3.60;76.75
50710;BME280;37033;49.994;21.992;2023-02-05T13:57:15;101053.77;;;-3.58;76.81
50710;BME280;37033;49.994;21.992;2023-02-05T14:00:14;101059.88;;;-3.51;76.62
50710;BME280;37033;49.994;21.992;2023-02-05T14:03:05;101058.61;;;-3.51;76.21
50710;BME280;37033;49.994;21.992;2023-02-05T14:05:57;101063.67;;;-3.52;76.14
50710;BME280;37033;49.994;21.992;2023-02-05T14:08:48;101061.17;;;-3.52;76.26
50710;BME280;37033;49.994;21.992;2023-02-05T14:11:52;101063.70;;;-3.50;76.33
50710;BME280;37033;49.994;21.992;2023-02-05T14:14:43;101054.38;;;-3.51;76.26
50710;BME280;37033;49.994;21.992;2023-02-05T14:17:53;101057.09;;;-3.54;76.04
50710;BME280;37033;49.994;21.992;2023-02-05T14:20:43;101054.52;;;-3.61;76.25
50710;BME280;37033;49.994;21.992;2023-02-05T14:23:55;101058.23;;;-3.63;76.47
50710;BME280;37033;49.994;21.992;2023-02-05T14:26:48;101057.66;;;-3.65;76.65
50710;BME280;37033;49.994;21.992;2023-02-05T14:29:40;101054.77;;;-3.67;76.72
50710;BME280;37033;49.994;21.992;2023-02-05T14:32:57;101058.73;;;-3.68;76.75
50710;BME280;37033;49.994;21.992;2023-02-05T14:35:47;101063.19;;;-3.70;76.88
50710;BME280;37033;49.994;21.992;2023-02-05T14:38:39;101064.73;;;-3.72;76.83
50710;BME280;37033;49.994;21.992;2023-02-05T14:41:32;101067.27;;;-3.76;76.82
50710;BME280;37033;49.994;21.992;2023-02-05T14:44:39;101067.35;;;-3.79;76.80
50710;BME280;37033;49.994;21.992;2023-02-05T14:47:32;101064.92;;;-3.83;76.97
50710;BME280;37033;49.994;21.992;2023-02-05T14:50:25;101073.05;;;-3.82;77.20
50710;BME280;37033;49.994;21.992;2023-02-05T14:53:24;101075.63;;;-3.86;77.48
50710;BME280;37033;49.994;21.992;2023-02-05T14:56:26;101081.02;;;-3.95;78.05
50710;BME280;37033;49.994;21.992;2023-02-05T14:59:23;101081.66;;;-4.02;78.26
50710;BME280;37033;49.994;21.992;2023-02-05T15:05:40;101082.80;;;-4.08;78.72
50710;BME280;37033;49.994;21.992;2023-02-05T15:08:43;101080.50;;;-4.10;78.87